createdAt,value
2022-11-12T00:01:04.493Z,101876.00
2022-11-12T00:04:06.720Z,101873.80
2022-11-12T00:07:03.153Z,101876.40
2022-11-12T00:10:29.773Z,101879.00
2022-11-12T00:13:23.288Z,101877.40
2022-11-12T00:16:16.504Z,101879.40
2022-11-12T00:19:08.614Z,101878.60
2022-11-12T00:22:44.598Z,101880.60
2022-11-12T00:25:37.823Z,101879.00
2022-11-12T00:28:40.600Z,101883.20
2022-11-12T00:31:35.249Z,101889.20
2022-11-12T00:34:27.571Z,101880.60
2022-11-12T00:37:25.636Z,101883.80
2022-11-12T00:40:46.312Z,101889.80
2022-11-12T00:43:38.783Z,101886.40
2022-11-12T00:46:31.417Z,101887.20
2022-11-12T00:49:23.318Z,101885.00
2022-11-12T00:52:15.795Z,101885.60
2022-11-12T00:55:18.445Z,101887.60
2022-11-12T00:58:19.605Z,101887.20
2022-11-12T01:01:33.795Z,101878.00
2022-11-12T01:04:26.091Z,101876.20
2022-11-12T01:07:18.584Z,101873.80
2022-11-12T01:10:27.876Z,101872.20
2022-11-12T01:13:19.654Z,101882.40
2022-11-12T01:16:21.378Z,101872.40
2022-11-12T01:19:43.239Z,101870.40
2022-11-12T01:22:41.292Z,101856.80
2022-11-12T01:28:59.219Z,101862.40
2022-11-12T01:31:51.433Z,101862.60
2022-11-12T01:34:46.256Z,101868.60
2022-11-12T01:37:40.751Z,101870.20
2022-11-12T01:40:56.730Z,101862.60
2022-11-12T01:43:52.127Z,101864.20
2022-11-12T01:47:00.602Z,101867.60
2022-11-12T01:49:57.517Z,101874.80
2022-11-12T01:52:51.746Z,101871.40
2022-11-12T01:55:44.092Z,101878.00
2022-11-12T01:58:37.683Z,101876.60
2022-11-12T02:01:30.310Z,101876.00
2022-11-12T02:04:22.523Z,101873.20
2022-11-12T02:07:33.665Z,101874.20
2022-11-12T02:10:27.318Z,101873.40
2022-11-12T02:13:37.446Z,101873.80
2022-11-12T02:17:03.032Z,101877.00
2022-11-12T02:20:09.016Z,101875.60
2022-11-12T02:23:09.322Z,101878.80
2022-11-12T02:26:02.660Z,101883.20
2022-11-12T02:28:54.612Z,101869.00
2022-11-12T02:31:46.725Z,101872.20
2022-11-12T02:34:39.931Z,101875.60
2022-11-12T02:37:32.170Z,101883.20
2022-11-12T02:40:59.330Z,101884.60
2022-11-12T02:44:32.349Z,101881.60
2022-11-12T02:47:24.346Z,101883.40
2022-11-12T02:50:17.347Z,101878.40
2022-11-12T02:53:12.407Z,101888.60
2022-11-12T02:59:09.967Z,101879.80
2022-11-12T03:02:02.117Z,101882.00
2022-11-12T03:04:54.299Z,101885.40
2022-11-12T03:07:48.387Z,101881.20
2022-11-12T03:11:00.533Z,101885.00
2022-11-12T03:13:52.523Z,101899.20
2022-11-12T03:17:00.969Z,101893.80
2022-11-12T03:19:53.309Z,101901.60
2022-11-12T03:23:02.253Z,101903.20
2022-11-12T03:25:56.205Z,101892.00
2022-11-12T03:29:19.817Z,101898.40
2022-11-12T03:32:11.801Z,101903.60
2022-11-12T03:35:04.724Z,101904.00
2022-11-12T03:37:57.372Z,101898.80
2022-11-12T03:40:49.872Z,101897.80
2022-11-12T03:43:41.732Z,101900.20
2022-11-12T03:46:41.559Z,101906.60
2022-11-12T03:49:37.404Z,101909.80
2022-11-12T03:52:29.499Z,101904.20
2022-11-12T03:55:30.924Z,101904.80
2022-11-12T03:58:22.437Z,101903.40
2022-11-12T04:01:48.427Z,101906.40
2022-11-12T04:04:57.875Z,101894.60
2022-11-12T04:08:12.148Z,101895.00
2022-11-12T04:11:14.428Z,101900.40
2022-11-12T04:14:14.084Z,101899.40
2022-11-12T04:17:24.468Z,101892.00
2022-11-12T04:20:34.682Z,101896.40
2022-11-12T04:23:45.262Z,101892.00
2022-11-12T04:26:38.041Z,101900.40
2022-11-12T04:29:48.002Z,101891.40
2022-11-12T04:32:42.668Z,101893.60
2022-11-12T04:36:04.015Z,101890.20
2022-11-12T04:38:57.451Z,101894.20
2022-11-12T04:42:09.513Z,101896.40
2022-11-12T04:45:01.587Z,101885.00
2022-11-12T04:48:02.189Z,101881.80
2022-11-12T04:50:57.395Z,101884.00
2022-11-12T04:53:49.274Z,101882.40
2022-11-12T04:57:07.115Z,101889.00
2022-11-12T04:59:58.735Z,101888.80
2022-11-12T05:03:13.400Z,101891.20
2022-11-12T05:06:41.903Z,101885.60
2022-11-12T05:09:40.368Z,101894.60
2022-11-12T05:12:32.197Z,101884.60
2022-11-12T05:16:03.294Z,101888.80
2022-11-12T05:22:42.743Z,101890.60
2022-11-12T05:26:07.169Z,101898.20
2022-11-12T05:29:00.203Z,101893.40
2022-11-12T05:31:53.312Z,101897.60
2022-11-12T05:38:07.453Z,101898.40
2022-11-12T05:40:59.593Z,101905.60
2022-11-12T05:43:59.168Z,101910.80
2022-11-12T05:46:51.992Z,101910.20
2022-11-12T05:51:06.041Z,101918.20
2022-11-12T05:54:16.093Z,101909.00
2022-11-12T05:57:18.000Z,101911.40
2022-11-12T06:00:34.242Z,101922.20
2022-11-12T06:04:00.109Z,101925.60
2022-11-12T06:06:55.813Z,101928.00
2022-11-12T06:11:02.130Z,101925.20
2022-11-12T06:13:56.565Z,101937.00
2022-11-12T06:17:02.221Z,101932.40
2022-11-12T06:19:57.513Z,101935.80
2022-11-12T06:22:49.626Z,101930.00
2022-11-12T06:26:17.025Z,101936.60
2022-11-12T06:29:59.346Z,101935.00
2022-11-12T06:32:52.268Z,101932.40
2022-11-12T06:36:16.899Z,101930.20
2022-11-12T06:39:42.460Z,101932.60
2022-11-12T06:43:39.226Z,101938.20
2022-11-12T06:47:18.162Z,101943.00
2022-11-12T06:50:18.255Z,101944.60
2022-11-12T06:53:21.907Z,101943.00
2022-11-12T06:56:16.038Z,101944.00
2022-11-12T06:59:09.522Z,101943.00
2022-11-12T07:02:14.799Z,101944.20
2022-11-12T07:09:43.041Z,101961.40
2022-11-12T07:12:36.167Z,101961.00
2022-11-12T07:20:15.564Z,101963.00
2022-11-12T07:23:51.034Z,101970.00
2022-11-12T07:27:05.834Z,101971.60
2022-11-12T07:29:59.021Z,101973.60
2022-11-12T07:33:42.758Z,101963.00
2022-11-12T07:36:35.380Z,101968.20
2022-11-12T07:39:27.965Z,101971.60
2022-11-12T07:46:43.425Z,101975.20
2022-11-12T07:50:00.952Z,101974.60
2022-11-12T07:53:26.493Z,101974.00
2022-11-12T07:56:30.134Z,101973.80
2022-11-12T07:59:54.583Z,101976.00
2022-11-12T08:02:46.906Z,101973.60
2022-11-12T08:05:59.808Z,101977.80
2022-11-12T08:09:17.093Z,101972.60
2022-11-12T08:12:35.206Z,101971.40
2022-11-12T08:15:27.721Z,101973.20
2022-11-12T08:21:41.353Z,101980.80
2022-11-12T08:25:16.896Z,101977.80
2022-11-12T08:28:18.078Z,101977.80
2022-11-12T08:31:12.785Z,101983.40
2022-11-12T08:34:22.812Z,101980.80
2022-11-12T08:40:57.405Z,101987.60
2022-11-12T08:43:49.728Z,101985.60
2022-11-12T08:47:03.121Z,101987.00
2022-11-12T08:50:16.551Z,101998.00
2022-11-12T08:53:28.945Z,102001.20
2022-11-12T08:57:03.967Z,101996.00
2022-11-12T08:59:59.196Z,101992.40
2022-11-12T09:02:50.915Z,101989.60
2022-11-12T09:05:47.611Z,101998.60
2022-11-12T09:12:19.671Z,102004.20
2022-11-12T09:15:39.263Z,102006.20
2022-11-12T09:18:31.962Z,102010.40
2022-11-12T09:21:25.188Z,102018.40
2022-11-12T09:24:19.134Z,102016.40
2022-11-12T09:27:14.246Z,102010.80
2022-11-12T09:30:07.196Z,102012.20
2022-11-12T09:33:08.641Z,102007.40
2022-11-12T09:36:03.343Z,102010.00
2022-11-12T09:38:56.278Z,102010.60
2022-11-12T09:41:49.746Z,102011.20
2022-11-12T09:45:03.846Z,102006.00
2022-11-12T09:51:27.331Z,102016.60
2022-11-12T09:54:58.778Z,102021.20
2022-11-12T09:57:52.016Z,102021.20
2022-11-12T10:05:16.352Z,102029.00
2022-11-12T10:08:53.296Z,102020.00
2022-11-12T10:12:52.705Z,102023.00
2022-11-12T10:16:11.516Z,102023.80
2022-11-12T10:19:28.164Z,102022.20
2022-11-12T10:23:09.523Z,102022.20
2022-11-12T10:26:03.447Z,102024.80
2022-11-12T10:29:18.676Z,102027.80
2022-11-12T10:32:12.249Z,102027.80
2022-11-12T10:35:04.335Z,102034.80
2022-11-12T10:38:29.516Z,102036.80
2022-11-12T10:41:28.138Z,102045.20
2022-11-12T10:44:29.989Z,102044.00
2022-11-12T10:47:33.986Z,102032.40
2022-11-12T10:50:29.763Z,102038.80
2022-11-12T10:53:40.149Z,102033.40
2022-11-12T10:56:36.326Z,102031.60
2022-11-12T10:59:29.161Z,102027.80
2022-11-12T11:02:27.991Z,102035.60
2022-11-12T11:05:57.311Z,102037.80
2022-11-12T11:09:13.202Z,102036.20
2022-11-12T11:12:45.751Z,102036.40
2022-11-12T11:15:42.248Z,102035.60
2022-11-12T11:18:37.696Z,102038.40
2022-11-12T11:22:09.515Z,102039.40
2022-11-12T11:25:32.147Z,102036.20
2022-11-12T11:28:30.196Z,102028.40
2022-11-12T11:31:40.916Z,102026.00
2022-11-12T11:34:56.532Z,102034.60
2022-11-12T11:37:58.741Z,102031.40
2022-11-12T11:41:17.302Z,102035.40
2022-11-12T11:47:59.958Z,102039.60
2022-11-12T11:51:00.215Z,102039.60
2022-11-12T11:53:58.756Z,102042.00
2022-11-12T11:57:07.374Z,102045.20
2022-11-12T12:03:17.035Z,102047.60
2022-11-12T12:06:23.473Z,102036.60
2022-11-12T12:09:33.654Z,102027.60
2022-11-12T12:12:37.507Z,102024.60
2022-11-12T12:16:10.196Z,102027.80
2022-11-12T12:19:09.208Z,102025.40
2022-11-12T12:22:02.621Z,102027.80
2022-11-12T12:24:56.936Z,102032.00
2022-11-12T12:27:55.141Z,102030.60
2022-11-12T12:30:51.660Z,102033.80
2022-11-12T12:33:52.437Z,102023.20
2022-11-12T12:36:46.298Z,102027.60
2022-11-12T12:39:47.895Z,102017.40
2022-11-12T12:42:43.818Z,102019.20
2022-11-12T12:45:46.580Z,102035.60
2022-11-12T12:48:42.090Z,102023.80
2022-11-12T12:51:35.450Z,102025.60
2022-11-12T12:55:41.318Z,102022.60
2022-11-12T12:58:36.386Z,102022.80
2022-11-12T13:01:36.149Z,102022.40
2022-11-12T13:05:05.820Z,102028.40
2022-11-12T13:08:01.423Z,102030.80
2022-11-12T13:11:02.696Z,102032.80
2022-11-12T13:13:56.754Z,102028.40
2022-11-12T13:17:13.171Z,102033.40
2022-11-12T13:20:39.616Z,102028.60
2022-11-12T13:24:11.453Z,102031.20
2022-11-12T13:27:05.496Z,102027.00
2022-11-12T13:29:58.428Z,102029.20
2022-11-12T13:32:57.304Z,102039.80
2022-11-12T13:35:50.205Z,102036.80
2022-11-12T13:39:13.984Z,102031.60
2022-11-12T13:42:28.158Z,102037.40
2022-11-12T13:45:42.314Z,102038.60
2022-11-12T13:48:37.782Z,102042.60
2022-11-12T13:51:45.027Z,102035.20
2022-11-12T13:54:39.263Z,102038.00
2022-11-12T13:57:36.458Z,102032.80
2022-11-12T14:00:34.205Z,102033.80
2022-11-12T14:03:34.019Z,102039.20
2022-11-12T14:06:34.790Z,102034.40
2022-11-12T14:09:50.121Z,102033.40
2022-11-12T14:13:01.700Z,102031.00
2022-11-12T14:16:18.866Z,102030.00
2022-11-12T14:19:28.798Z,102038.20
2022-11-12T14:22:27.217Z,102031.40
2022-11-12T14:25:24.962Z,102031.60
2022-11-12T14:28:32.416Z,102026.60
2022-11-12T14:31:30.006Z,102027.20
2022-11-12T14:34:42.191Z,102020.60
2022-11-12T14:37:43.571Z,102022.80
2022-11-12T14:40:38.827Z,102025.40
2022-11-12T14:43:40.317Z,102024.80
2022-11-12T14:46:40.353Z,102023.80
2022-11-12T14:49:53.094Z,102026.00
2022-11-12T14:52:52.266Z,102029.00
2022-11-12T14:55:51.836Z,102027.60
2022-11-12T14:58:44.881Z,102031.20
2022-11-12T15:05:04.250Z,102027.20
2022-11-12T15:08:01.168Z,102027.40
2022-11-12T15:10:54.559Z,102041.20
2022-11-12T15:13:47.022Z,102034.00
2022-11-12T15:16:43.501Z,102037.00
2022-11-12T15:19:36.725Z,102041.60
2022-11-12T15:22:28.825Z,102040.00
2022-11-12T15:25:26.938Z,102041.00
2022-11-12T15:28:24.678Z,102039.20
2022-11-12T15:31:23.829Z,102038.00
2022-11-12T15:34:45.762Z,102040.20
2022-11-12T15:37:49.883Z,102049.80
2022-11-12T15:40:47.866Z,102050.00
2022-11-12T15:43:43.770Z,102055.00
2022-11-12T15:46:36.078Z,102053.80
2022-11-12T15:49:28.172Z,102059.80
2022-11-12T15:52:20.568Z,102055.00
2022-11-12T15:55:14.448Z,102048.20
2022-11-12T15:58:06.317Z,102053.60
2022-11-12T16:00:58.928Z,102058.40
2022-11-12T16:03:51.644Z,102063.20
2022-11-12T16:06:43.426Z,102062.00
2022-11-12T16:09:35.480Z,102061.80
2022-11-12T16:12:29.941Z,102075.00
2022-11-12T16:15:25.838Z,102076.40
2022-11-12T16:18:18.212Z,102075.80
2022-11-12T16:21:14.457Z,102090.00
2022-11-12T16:24:13.758Z,102085.00
2022-11-12T16:27:07.863Z,102085.40
2022-11-12T16:29:59.749Z,102088.00
2022-11-12T16:32:51.863Z,102083.80
2022-11-12T16:35:43.894Z,102090.60
2022-11-12T16:38:36.038Z,102083.00
2022-11-12T16:41:28.350Z,102083.60
2022-11-12T16:44:20.288Z,102086.80
2022-11-12T16:47:14.549Z,102093.80
2022-11-12T16:50:11.086Z,102091.40
2022-11-12T16:53:03.059Z,102091.20
2022-11-12T16:55:55.182Z,102088.40
2022-11-12T16:58:47.607Z,102088.80
2022-11-12T17:01:40.185Z,102084.00
2022-11-12T17:04:33.020Z,102079.60
2022-11-12T17:07:25.126Z,102090.60
2022-11-12T17:10:23.435Z,102092.40
2022-11-12T17:13:18.025Z,102095.60
2022-11-12T17:16:10.866Z,102094.60
2022-11-12T17:19:03.492Z,102084.40
2022-11-12T17:21:55.342Z,102092.60
2022-11-12T17:24:47.594Z,102095.80
2022-11-12T17:27:40.538Z,102090.00
2022-11-12T17:30:33.413Z,102096.00
2022-11-12T17:33:25.660Z,102084.00
2022-11-12T17:36:20.037Z,102083.60
2022-11-12T17:39:12.765Z,102085.80
2022-11-12T17:42:05.095Z,102079.20
2022-11-12T17:44:58.747Z,102098.60
2022-11-12T17:47:50.879Z,102098.20
2022-11-12T17:50:42.721Z,102092.00
2022-11-12T17:53:34.963Z,102084.00
2022-11-12T17:56:27.377Z,102095.20
2022-11-12T17:59:19.621Z,102094.80
2022-11-12T18:02:14.889Z,102099.80
2022-11-12T18:05:08.257Z,102089.80
2022-11-12T18:08:00.311Z,102098.20
2022-11-12T18:10:53.322Z,102094.40
2022-11-12T18:13:46.014Z,102086.80
2022-11-12T18:16:38.457Z,102094.40
2022-11-12T18:19:31.046Z,102092.60
2022-11-12T18:22:23.417Z,102087.60
2022-11-12T18:25:15.846Z,102094.00
2022-11-12T18:28:09.281Z,102080.00
2022-11-12T18:31:05.937Z,102077.80
2022-11-12T18:33:57.886Z,102082.00
2022-11-12T18:36:49.280Z,102079.60
2022-11-12T18:39:41.842Z,102083.60
2022-11-12T18:42:34.576Z,102084.60
2022-11-12T18:45:27.081Z,102083.60
2022-11-12T18:48:20.074Z,102088.60
2022-11-12T18:51:13.428Z,102088.00
2022-11-12T18:54:06.077Z,102091.20
2022-11-12T18:56:57.848Z,102097.20
2022-11-12T18:59:49.747Z,102090.80
2022-11-12T19:02:43.918Z,102087.20
2022-11-12T19:05:35.646Z,102088.80
2022-11-12T19:08:28.163Z,102086.80
2022-11-12T19:11:22.040Z,102080.40
2022-11-12T19:14:14.407Z,102078.60
2022-11-12T19:17:06.445Z,102091.60
2022-11-12T19:19:58.708Z,102094.20
2022-11-12T19:22:50.877Z,102095.20
2022-11-12T19:25:43.491Z,102104.00
2022-11-12T19:28:37.450Z,102095.60
2022-11-12T19:31:30.031Z,102107.80
2022-11-12T19:34:22.267Z,102100.40
2022-11-12T19:40:26.847Z,102101.80
2022-11-12T19:43:20.297Z,102109.40
2022-11-12T19:46:12.407Z,102108.60
2022-11-12T19:49:04.862Z,102101.20
2022-11-12T19:51:56.618Z,102100.20
2022-11-12T19:54:48.383Z,102098.60
2022-11-12T19:57:40.922Z,102094.20
2022-11-12T20:00:33.383Z,102106.80
2022-11-12T20:03:26.792Z,102104.20
2022-11-12T20:06:20.638Z,102099.00
2022-11-12T20:09:12.529Z,102103.00
2022-11-12T20:12:04.602Z,102111.00
2022-11-12T20:14:56.774Z,102101.40
2022-11-12T20:17:49.071Z,102115.40
2022-11-12T20:20:41.291Z,102112.80
2022-11-12T20:23:34.447Z,102105.60
2022-11-12T20:26:28.512Z,102102.80
2022-11-12T20:29:21.197Z,102117.40
2022-11-12T20:32:13.685Z,102115.00
2022-11-12T20:35:14.155Z,102116.60
2022-11-12T20:38:11.427Z,102122.00
2022-11-12T20:41:05.995Z,102124.40
2022-11-12T20:43:58.704Z,102124.80
2022-11-12T20:46:50.565Z,102126.00
2022-11-12T20:49:42.864Z,102124.40
2022-11-12T20:52:34.885Z,102126.80
2022-11-12T20:55:26.490Z,102128.60
2022-11-12T20:58:18.729Z,102120.60
2022-11-12T21:01:15.850Z,102130.80
2022-11-12T21:04:08.108Z,102123.00
2022-11-12T21:07:05.041Z,102124.80
2022-11-12T21:09:57.396Z,102114.20
2022-11-12T21:12:48.956Z,102116.80
2022-11-12T21:15:40.914Z,102115.80
2022-11-12T21:18:33.258Z,102125.40
2022-11-12T21:21:28.402Z,102121.60
2022-11-12T21:24:23.328Z,102117.60
2022-11-12T21:27:15.656Z,102119.40
2022-11-12T21:30:09.993Z,102122.00
2022-11-12T21:33:02.576Z,102119.40
2022-11-12T21:35:59.763Z,102123.20
2022-11-12T21:38:51.526Z,102124.20
2022-11-12T21:41:46.386Z,102113.00
2022-11-12T21:44:41.559Z,102119.60
2022-11-12T21:47:44.380Z,102119.40
2022-11-12T21:50:36.280Z,102124.60
2022-11-12T21:53:28.843Z,102120.20
2022-11-12T21:56:21.924Z,102122.20
2022-11-12T21:59:13.549Z,102124.60
2022-11-12T22:02:06.233Z,102117.00
2022-11-12T22:04:58.657Z,102117.20
2022-11-12T22:07:51.754Z,102115.80
2022-11-12T22:10:44.084Z,102119.20
2022-11-12T22:13:35.959Z,102120.40
2022-11-12T22:16:31.963Z,102121.00
2022-11-12T22:19:24.158Z,102116.00
2022-11-12T22:22:16.790Z,102120.00
2022-11-12T22:25:10.713Z,102119.20
2022-11-12T22:28:02.878Z,102121.40
2022-11-12T22:30:55.543Z,102114.40
2022-11-12T22:33:48.016Z,102114.80
2022-11-12T22:36:42.462Z,102114.20
2022-11-12T22:39:34.351Z,102111.60
2022-11-12T22:42:29.841Z,102107.40
2022-11-12T22:45:22.226Z,102108.40
2022-11-12T22:48:14.099Z,102109.80
2022-11-12T22:51:09.289Z,102112.20
2022-11-12T22:54:47.264Z,102115.00
2022-11-12T22:57:39.388Z,102113.40
2022-11-12T23:00:34.519Z,102118.00
2022-11-12T23:03:26.456Z,102126.00
2022-11-12T23:06:18.240Z,102115.80
2022-11-12T23:09:11.310Z,102113.60
2022-11-12T23:12:08.004Z,102109.00
2022-11-12T23:21:31.711Z,102118.00
2022-11-12T23:24:24.628Z,102116.80
2022-11-12T23:27:17.179Z,102117.40
2022-11-12T23:30:11.348Z,102109.00
2022-11-12T23:33:02.766Z,102110.40
2022-11-12T23:35:54.387Z,102116.00
2022-11-12T23:38:46.389Z,102109.40
2022-11-12T23:41:38.754Z,102107.20
2022-11-12T23:44:30.669Z,102108.80
2022-11-12T23:47:25.476Z,102107.00
2022-11-12T23:50:29.185Z,102107.00
2022-11-12T23:53:59.249Z,102095.40
2022-11-12T23:56:52.260Z,102097.40
2022-11-12T23:59:50.169Z,102097.80
